Time;durP1;ratioP1;P1;durP2;ratioP2;P2;SDS_P1;SDS_P2;PMS_P1;PMS_P2;Temp;Humidity;BMP_temperature;BMP_pressure;BME280_temperature;BME280_humidity;BME280_pressure;Samples;Min_cycle;Max_cycle;Signal;HPM_P1;HPM_P2
2023/01/12 00:02:14;;;;;;;3.73;2.10;;;;;;;;;;5084448;28;20183;-55
2023/01/12 00:04:40;;;;;;;3.83;2.67;;;;;;;;;;5083631;28;20184;-53
2023/01/12 00:07:10;;;;;;;6.23;2.37;;;;;;;;;;5085443;28;20730;-55
2023/01/12 00:09:36;;;;;;;5.27;2.17;;;;;;;;;;5082811;28;20456;-53
2023/01/12 00:12:04;;;;;;;4.20;2.17;;;;;;;;;;5072188;28;20172;-53
2023/01/12 00:14:31;;;;;;;3.60;2.40;;;;;;;;;;5084362;28;20260;-55
2023/01/12 00:16:57;;;;;;;3.40;2.00;;;;;;;;;;5085008;28;20560;-53
2023/01/12 00:19:23;;;;;;;5.07;1.73;;;;;;;;;;5083824;28;20175;-53
2023/01/12 00:24:43;;;;;;;6.07;2.53;;;;;;;;;;5083764;28;20226;-54
2023/01/12 00:27:10;;;;;;;4.47;2.37;;;;;;;;;;5085503;28;20555;-53
2023/01/12 00:29:36;;;;;;;6.77;2.00;;;;;;;;;;5081319;28;20259;-53
2023/01/12 00:32:03;;;;;;;5.13;2.13;;;;;;;;;;5086834;28;20699;-54
2023/01/12 00:34:29;;;;;;;5.63;2.00;;;;;;;;;;5087954;28;20567;-54
2023/01/12 00:36:55;;;;;;;4.53;1.80;;;;;;;;;;5085804;28;20547;-54
2023/01/12 00:39:21;;;;;;;3.70;1.70;;;;;;;;;;5072716;28;20721;-52
2023/01/12 00:47:17;;;;;;;5.87;2.47;;;;;;;;;;5085973;28;20467;-53
2023/01/12 00:49:43;;;;;;;5.67;2.17;;;;;;;;;;5082111;28;20180;-54
2023/01/12 00:52:10;;;;;;;5.37;2.37;;;;;;;;;;5083688;28;20653;-54
2023/01/12 00:54:37;;;;;;;8.00;2.43;;;;;;;;;;5088365;28;20167;-54
2023/01/12 00:57:03;;;;;;;4.07;2.03;;;;;;;;;;5088955;28;20179;-53
2023/01/12 00:59:30;;;;;;;9.40;2.70;;;;;;;;;;5086678;28;20171;-54
2023/01/12 01:01:56;;;;;;;7.30;2.20;;;;;;;;;;5088103;28;20573;-54
2023/01/12 01:04:22;;;;;;;9.53;2.87;;;;;;;;;;5087785;28;20267;-53
2023/01/12 01:06:49;;;;;;;3.30;2.10;;;;;;;;;;5087620;28;20200;-52
2023/01/12 01:09:15;;;;;;;4.83;2.43;;;;;;;;;;5092862;28;20673;-52
2023/01/12 01:11:41;;;;;;;5.63;2.93;;;;;;;;;;5070260;28;20252;-53
2023/01/12 01:14:07;;;;;;;4.57;2.20;;;;;;;;;;5087373;28;20175;-54
2023/01/12 01:16:33;;;;;;;4.10;2.33;;;;;;;;;;5087259;28;20231;-53
2023/01/12 01:19:00;;;;;;;5.17;2.77;;;;;;;;;;5087089;28;20239;-53
2023/01/12 01:21:26;;;;;;;5.50;2.87;;;;;;;;;;5087508;28;20194;-54
2023/01/12 01:23:52;;;;;;;4.63;2.43;;;;;;;;;;5085341;28;20547;-54
2023/01/12 01:26:19;;;;;;;4.67;2.10;;;;;;;;;;5088646;28;20248;-55
2023/01/12 01:28:46;;;;;;;6.10;2.47;;;;;;;;;;5088081;28;20514;-55
2023/01/12 01:31:22;;;;;;;6.30;2.23;;;;;;;;;;5086396;28;20172;-54
2023/01/12 01:33:49;;;;;;;3.77;2.20;;;;;;;;;;5087412;28;20207;-53
2023/01/12 01:36:15;;;;;;;4.50;2.17;;;;;;;;;;5081754;28;20559;-54
2023/01/12 01:38:45;;;;;;;5.77;2.20;;;;;;;;;;5084258;28;20180;-56
2023/01/12 01:41:16;;;;;;;6.67;2.43;;;;;;;;;;5088168;28;20176;-55
2023/01/12 01:43:54;;;;;;;5.83;2.53;;;;;;;;;;5079986;28;20183;-54
2023/01/12 01:46:41;;;;;;;4.60;2.00;;;;;;;;;;5088143;28;20205;-53
2023/01/12 01:49:14;;;;;;;5.37;2.73;;;;;;;;;;5069026;28;20195;-54
2023/01/12 01:51:41;;;;;;;3.97;2.50;;;;;;;;;;5087440;28;20172;-54
2023/01/12 01:54:07;;;;;;;4.07;2.27;;;;;;;;;;5072062;28;20604;-54
2023/01/12 01:56:33;;;;;;;4.63;2.20;;;;;;;;;;5079473;28;20690;-53
2023/01/12 01:59:04;;;;;;;4.50;2.37;;;;;;;;;;5083199;28;20228;-53
2023/01/12 02:01:30;;;;;;;6.20;2.47;;;;;;;;;;5088129;28;20572;-54
2023/01/12 02:03:56;;;;;;;6.23;2.50;;;;;;;;;;5084561;28;20188;-54
2023/01/12 02:06:25;;;;;;;6.13;2.63;;;;;;;;;;5085210;28;20172;-53
2023/01/12 02:08:54;;;;;;;10.03;2.57;;;;;;;;;;5081734;28;20247;-53
2023/01/12 02:16:59;;;;;;;7.50;3.00;;;;;;;;;;5086024;28;20551;-53
2023/01/12 02:19:25;;;;;;;6.50;2.73;;;;;;;;;;5086643;28;20180;-53
2023/01/12 02:22:06;;;;;;;6.73;2.27;;;;;;;;;;5085065;28;20653;-54
2023/01/12 02:24:50;;;;;;;4.23;2.50;;;;;;;;;;5086063;28;20164;-54
2023/01/12 02:27:17;;;;;;;5.23;2.33;;;;;;;;;;5085140;28;20207;-55
2023/01/12 02:29:55;;;;;;;8.07;3.03;;;;;;;;;;5085417;28;20175;-54
2023/01/12 02:32:24;;;;;;;6.90;2.50;;;;;;;;;;5084810;28;20680;-53
2023/01/12 02:34:58;;;;;;;8.13;3.60;;;;;;;;;;5077035;28;20207;-53
2023/01/12 02:37:24;;;;;;;5.90;2.47;;;;;;;;;;5059262;28;20946;-54
2023/01/12 02:39:58;;;;;;;5.43;2.43;;;;;;;;;;5064617;28;20165;-55
2023/01/12 02:42:40;;;;;;;10.30;2.33;;;;;;;;;;5056795;28;20536;-54
2023/01/12 02:45:06;;;;;;;7.20;2.33;;;;;;;;;;5065038;28;20180;-53
2023/01/12 02:47:37;;;;;;;6.17;2.37;;;;;;;;;;5065387;28;20204;-54
2023/01/12 02:50:06;;;;;;;4.90;2.77;;;;;;;;;;5062233;28;20570;-54
2023/01/12 02:52:33;;;;;;;5.23;2.50;;;;;;;;;;5052331;28;20227;-54
2023/01/12 02:54:59;;;;;;;8.17;2.80;;;;;;;;;;5060898;28;20187;-53
2023/01/12 02:57:26;;;;;;;7.70;2.70;;;;;;;;;;5065170;28;20538;-55
2023/01/12 02:59:53;;;;;;;5.87;3.17;;;;;;;;;;5066147;28;20690;-55
2023/01/12 03:02:21;;;;;;;5.23;2.97;;;;;;;;;;5064010;28;20573;-54
2023/01/12 03:04:47;;;;;;;9.17;2.90;;;;;;;;;;5066188;28;20177;-55
2023/01/12 03:07:38;;;;;;;9.53;4.10;;;;;;;;;;5065026;28;20188;-53
2023/01/12 03:10:19;;;;;;;4.13;2.53;;;;;;;;;;5057963;28;20180;-53
2023/01/12 03:12:50;;;;;;;7.57;3.13;;;;;;;;;;5047763;28;20599;-52
2023/01/12 03:15:17;;;;;;;4.00;2.30;;;;;;;;;;5063810;28;20176;-54
2023/01/12 03:17:55;;;;;;;5.73;2.53;;;;;;;;;;5062598;28;20710;-54
2023/01/12 03:20:23;;;;;;;4.67;2.47;;;;;;;;;;5071425;28;20246;-54
2023/01/12 03:22:52;;;;;;;7.47;3.00;;;;;;;;;;5063969;28;20242;-56
2023/01/12 03:25:18;;;;;;;9.20;2.77;;;;;;;;;;5063235;28;20220;-53
2023/01/12 03:27:46;;;;;;;6.80;3.00;;;;;;;;;;5063500;28;20200;-53
2023/01/12 03:30:15;;;;;;;6.60;2.77;;;;;;;;;;5041729;28;20640;-54
2023/01/12 03:32:41;;;;;;;4.93;2.77;;;;;;;;;;5065092;28;20203;-54
2023/01/12 03:35:08;;;;;;;7.27;2.90;;;;;;;;;;5069942;28;20188;-54
2023/01/12 03:37:36;;;;;;;6.57;2.77;;;;;;;;;;5081566;28;20214;-54
2023/01/12 03:40:05;;;;;;;6.13;2.87;;;;;;;;;;5082687;28;20480;-53
2023/01/12 03:42:38;;;;;;;10.07;2.97;;;;;;;;;;5081838;28;20187;-53
2023/01/12 03:45:24;;;;;;;9.33;2.83;;;;;;;;;;5063515;28;20176;-54
2023/01/12 03:47:54;;;;;;;5.13;2.20;;;;;;;;;;5085776;28;20269;-53
2023/01/12 03:50:23;;;;;;;10.07;2.70;;;;;;;;;;5082472;28;20184;-53
2023/01/12 03:52:49;;;;;;;7.40;3.20;;;;;;;;;;5082915;28;20527;-53
2023/01/12 03:55:17;;;;;;;3.07;2.10;;;;;;;;;;5084857;28;20160;-54
2023/01/12 03:57:44;;;;;;;6.87;2.47;;;;;;;;;;5081495;28;20172;-55
2023/01/12 04:00:11;;;;;;;6.60;2.33;;;;;;;;;;5084349;28;20176;-54
2023/01/12 04:02:37;;;;;;;6.50;3.10;;;;;;;;;;5086080;28;20255;-54
2023/01/12 04:05:05;;;;;;;6.40;2.27;;;;;;;;;;5085922;28;20179;-53
2023/01/12 04:07:31;;;;;;;8.37;3.40;;;;;;;;;;5089540;28;20194;-54
2023/01/12 04:09:57;;;;;;;5.13;2.50;;;;;;;;;;5089944;28;20167;-54
2023/01/12 04:12:23;;;;;;;7.63;3.27;;;;;;;;;;5089419;28;20209;-53
2023/01/12 04:14:49;;;;;;;6.13;1.67;;;;;;;;;;5088338;28;20174;-55
2023/01/12 04:17:15;;;;;;;6.83;3.53;;;;;;;;;;5089743;28;20276;-54
2023/01/12 04:19:42;;;;;;;2.70;1.93;;;;;;;;;;5090017;28;20239;-55
2023/01/12 04:24:54;;;;;;;5.63;2.73;;;;;;;;;;5089616;28;20657;-54
2023/01/12 04:27:20;;;;;;;3.90;2.13;;;;;;;;;;5089127;28;20321;-54
2023/01/12 04:29:46;;;;;;;3.97;1.90;;;;;;;;;;5085884;28;20167;-54
2023/01/12 04:32:12;;;;;;;7.43;3.50;;;;;;;;;;5071476;28;20233;-55
2023/01/12 04:34:38;;;;;;;5.33;1.97;;;;;;;;;;5089740;28;20219;-54
2023/01/12 04:37:04;;;;;;;4.73;2.23;;;;;;;;;;5087249;28;20180;-52
2023/01/12 04:39:37;;;;;;;8.77;2.53;;;;;;;;;;5087653;28;20418;-54
2023/01/12 04:42:03;;;;;;;7.57;2.70;;;;;;;;;;5088942;28;20262;-53
2023/01/12 04:44:31;;;;;;;4.63;2.07;;;;;;;;;;5088188;28;20191;-53
2023/01/12 04:46:57;;;;;;;3.13;2.00;;;;;;;;;;5087872;28;20518;-53
2023/01/12 04:49:23;;;;;;;5.23;2.20;;;;;;;;;;5077504;28;20642;-53
2023/01/12 04:51:49;;;;;;;6.30;2.57;;;;;;;;;;5087891;28;20254;-53
2023/01/12 04:54:15;;;;;;;6.83;2.33;;;;;;;;;;5086052;28;20712;-52
2023/01/12 04:56:41;;;;;;;6.97;2.47;;;;;;;;;;5088809;28;20213;-53
2023/01/12 04:59:09;;;;;;;6.27;2.40;;;;;;;;;;5087894;28;20167;-54
2023/01/12 05:01:37;;;;;;;4.53;2.03;;;;;;;;;;5088379;28;20570;-51
2023/01/12 05:04:03;;;;;;;8.40;2.50;;;;;;;;;;5085073;28;20186;-54
2023/01/12 05:06:29;;;;;;;4.60;2.30;;;;;;;;;;5088335;28;20615;-55
2023/01/12 05:11:40;;;;;;;4.63;2.10;;;;;;;;;;5088850;28;20249;-54
2023/01/12 05:14:07;;;;;;;3.53;1.80;;;;;;;;;;5086612;28;20508;-53
2023/01/12 05:16:33;;;;;;;6.07;2.37;;;;;;;;;;5082297;28;20199;-52
2023/01/12 05:18:59;;;;;;;4.40;2.27;;;;;;;;;;5088416;28;20172;-52
2023/01/12 05:21:25;;;;;;;4.57;2.73;;;;;;;;;;5087724;28;20176;-55
2023/01/12 05:23:52;;;;;;;5.33;2.30;;;;;;;;;;5087400;28;20511;-53
2023/01/12 05:26:18;;;;;;;8.20;2.63;;;;;;;;;;5088815;28;20172;-55
2023/01/12 05:28:46;;;;;;;5.70;2.27;;;;;;;;;;5088693;28;20211;-57
2023/01/12 05:31:13;;;;;;;4.10;2.03;;;;;;;;;;5088345;28;20172;-53
2023/01/12 05:33:39;;;;;;;3.90;1.80;;;;;;;;;;5086296;27;20728;-53
2023/01/12 05:36:06;;;;;;;5.97;2.37;;;;;;;;;;5087267;28;20215;-53
2023/01/12 05:38:32;;;;;;;6.70;2.07;;;;;;;;;;5085275;28;20185;-52
2023/01/12 05:40:59;;;;;;;4.73;1.93;;;;;;;;;;5069677;28;20176;-53
2023/01/12 05:46:11;;;;;;;5.00;2.87;;;;;;;;;;5081805;28;20202;-53
2023/01/12 05:48:37;;;;;;;3.40;1.93;;;;;;;;;;5083567;28;20681;-52
2023/01/12 05:51:04;;;;;;;4.23;1.80;;;;;;;;;;5083531;28;20668;-55
2023/01/12 05:53:30;;;;;;;9.00;2.17;;;;;;;;;;5064039;28;20613;-53
2023/01/12 05:55:56;;;;;;;4.00;1.60;;;;;;;;;;5064516;28;20796;-56
2023/01/12 05:58:22;;;;;;;6.00;1.70;;;;;;;;;;5088016;28;20175;-53
2023/01/12 06:00:48;;;;;;;4.80;1.70;;;;;;;;;;5082643;28;20192;-56
2023/01/12 06:03:14;;;;;;;4.83;2.17;;;;;;;;;;5084238;28;20187;-53
2023/01/12 06:05:41;;;;;;;4.30;1.80;;;;;;;;;;5066189;28;20670;-53
2023/01/12 06:08:07;;;;;;;11.43;1.80;;;;;;;;;;5067100;28;20512;-53
2023/01/12 06:10:35;;;;;;;5.60;2.27;;;;;;;;;;5081558;28;20568;-56
2023/01/12 06:15:46;;;;;;;4.20;1.57;;;;;;;;;;5084084;28;20195;-53
2023/01/12 06:18:12;;;;;;;4.10;1.63;;;;;;;;;;5082692;28;20192;-53
2023/01/12 06:20:38;;;;;;;2.97;1.30;;;;;;;;;;5083388;28;20308;-54
2023/01/12 06:23:04;;;;;;;4.50;2.03;;;;;;;;;;5085466;28;20171;-53
2023/01/12 06:25:31;;;;;;;5.07;1.90;;;;;;;;;;5084622;28;20650;-54
2023/01/12 06:27:57;;;;;;;5.50;1.90;;;;;;;;;;5057625;28;20981;-55
2023/01/12 06:30:24;;;;;;;4.77;1.97;;;;;;;;;;5082046;28;20553;-54
2023/01/12 06:32:50;;;;;;;5.60;1.60;;;;;;;;;;5084284;28;20187;-53
2023/01/12 06:35:16;;;;;;;3.50;1.93;;;;;;;;;;5061273;28;20213;-53
2023/01/12 06:37:42;;;;;;;5.00;2.13;;;;;;;;;;5063350;28;20177;-53
2023/01/12 06:40:09;;;;;;;4.37;1.83;;;;;;;;;;5065103;28;20169;-53
2023/01/12 06:42:39;;;;;;;5.87;1.93;;;;;;;;;;5066615;28;20516;-53
2023/01/12 06:45:06;;;;;;;5.20;1.77;;;;;;;;;;5067038;28;20266;-54
2023/01/12 06:47:32;;;;;;;4.37;1.83;;;;;;;;;;5066347;28;20663;-54
2023/01/12 06:49:58;;;;;;;6.30;2.90;;;;;;;;;;5067127;28;20177;-53
2023/01/12 06:52:25;;;;;;;5.10;2.53;;;;;;;;;;5066139;28;20611;-52
2023/01/12 06:54:52;;;;;;;3.60;1.83;;;;;;;;;;5061544;28;20179;-55
2023/01/12 06:57:18;;;;;;;4.30;2.30;;;;;;;;;;5059020;28;20647;-55
2023/01/12 06:59:44;;;;;;;4.10;1.73;;;;;;;;;;5057418;28;20230;-54
2023/01/12 07:02:14;;;;;;;4.07;1.93;;;;;;;;;;5063121;28;20619;-52
2023/01/12 07:04:40;;;;;;;2.70;2.07;;;;;;;;;;5062882;28;20173;-55
2023/01/12 07:07:07;;;;;;;3.97;2.00;;;;;;;;;;5067443;28;20553;-54
2023/01/12 07:09:33;;;;;;;4.83;2.00;;;;;;;;;;5059215;28;20184;-52
2023/01/12 07:11:59;;;;;;;4.33;2.30;;;;;;;;;;5057273;28;20172;-54
2023/01/12 07:14:25;;;;;;;4.70;1.93;;;;;;;;;;5058632;28;20435;-54
2023/01/12 07:16:51;;;;;;;8.57;2.37;;;;;;;;;;5070368;28;20218;-53
2023/01/12 07:19:17;;;;;;;7.27;2.33;;;;;;;;;;5075029;28;20637;-53
2023/01/12 07:21:43;;;;;;;5.63;1.90;;;;;;;;;;5064209;28;21012;-53
2023/01/12 07:24:10;;;;;;;6.03;2.07;;;;;;;;;;5062939;28;20264;-53
2023/01/12 07:26:36;;;;;;;9.57;2.27;;;;;;;;;;5066216;28;20635;-54
2023/01/12 07:29:02;;;;;;;7.17;1.87;;;;;;;;;;5063129;28;20213;-54
2023/01/12 07:31:28;;;;;;;2.67;1.40;;;;;;;;;;5059572;28;20686;-56
2023/01/12 07:33:55;;;;;;;6.23;1.93;;;;;;;;;;5071470;28;20792;-53
2023/01/12 07:36:21;;;;;;;5.33;2.33;;;;;;;;;;5083221;28;20183;-53
2023/01/12 07:38:47;;;;;;;5.80;2.00;;;;;;;;;;5080210;28;20263;-54
2023/01/12 07:43:58;;;;;;;1.83;1.47;;;;;;;;;;5083086;28;20199;-53
2023/01/12 07:46:24;;;;;;;3.33;1.83;;;;;;;;;;5071515;28;20183;-55
2023/01/12 07:48:50;;;;;;;2.30;1.57;;;;;;;;;;5072639;28;20195;-53
2023/01/12 07:51:16;;;;;;;6.33;2.20;;;;;;;;;;5074889;28;20247;-55
2023/01/12 07:53:42;;;;;;;3.30;1.57;;;;;;;;;;5071473;28;20486;-53
2023/01/12 07:56:09;;;;;;;2.40;1.90;;;;;;;;;;5080244;28;20175;-53
2023/01/12 07:58:36;;;;;;;3.23;2.03;;;;;;;;;;5085752;28;20254;-54
2023/01/12 08:01:02;;;;;;;2.97;2.00;;;;;;;;;;5080798;28;20615;-53
2023/01/12 08:03:28;;;;;;;5.60;2.57;;;;;;;;;;5074911;28;20199;-54
2023/01/12 08:05:56;;;;;;;4.40;2.00;;;;;;;;;;5075005;28;20618;-55
2023/01/12 08:08:22;;;;;;;4.63;2.60;;;;;;;;;;5063233;28;20545;-54
2023/01/12 08:10:49;;;;;;;3.30;1.90;;;;;;;;;;5081341;28;20255;-55
2023/01/12 08:13:15;;;;;;;2.10;1.60;;;;;;;;;;5078368;28;20618;-54
2023/01/12 08:15:49;;;;;;;4.13;1.90;;;;;;;;;;5075101;28;20183;-53
2023/01/12 08:18:21;;;;;;;5.47;2.00;;;;;;;;;;5070073;28;20718;-56
2023/01/12 08:20:47;;;;;;;2.37;1.80;;;;;;;;;;5070574;28;20630;-54
2023/01/12 08:23:17;;;;;;;3.53;1.70;;;;;;;;;;5079621;28;20241;-54
2023/01/12 08:25:44;;;;;;;3.83;1.50;;;;;;;;;;5063362;28;20290;-54
2023/01/12 08:28:13;;;;;;;4.33;1.60;;;;;;;;;;5064263;28;20223;-54
2023/01/12 08:30:39;;;;;;;4.03;2.00;;;;;;;;;;5080585;28;20172;-54
2023/01/12 08:33:06;;;;;;;3.13;2.20;;;;;;;;;;5084197;28;20172;-55
2023/01/12 08:35:34;;;;;;;3.40;1.70;;;;;;;;;;5083870;28;20413;-54
2023/01/12 08:38:00;;;;;;;2.47;1.73;;;;;;;;;;5082831;28;20207;-54
2023/01/12 08:41:31;;;;;;;3.70;1.60;;;;;;;;;;5085510;28;20564;-54
2023/01/12 08:43:12;;;;;;;3.77;1.60;;;;;;;;;;5077844;28;20228;-53
2023/01/12 08:45:38;;;;;;;1.63;1.50;;;;;;;;;;5081303;28;20698;-54
2023/01/12 08:48:04;;;;;;;3.20;1.90;;;;;;;;;;5078703;28;20757;-54
2023/01/12 08:50:30;;;;;;;4.13;1.50;;;;;;;;;;5080254;28;20171;-54
2023/01/12 08:52:56;;;;;;;6.07;2.00;;;;;;;;;;5084903;28;20180;-53
2023/01/12 08:55:22;;;;;;;3.93;1.90;;;;;;;;;;5085963;28;20190;-54
2023/01/12 08:57:48;;;;;;;5.07;1.80;;;;;;;;;;5078652;28;20534;-53
2023/01/12 09:00:14;;;;;;;2.17;1.73;;;;;;;;;;5081558;28;20642;-53
2023/01/12 09:02:40;;;;;;;1.80;1.37;;;;;;;;;;5079840;28;20241;-54
2023/01/12 09:05:07;;;;;;;1.67;1.23;;;;;;;;;;5086323;28;20187;-55
2023/01/12 09:07:33;;;;;;;3.93;1.50;;;;;;;;;;5077367;28;20291;-54
2023/01/12 09:09:59;;;;;;;2.80;1.57;;;;;;;;;;5079724;28;20245;-53
2023/01/12 09:12:26;;;;;;;3.17;1.50;;;;;;;;;;5079722;28;20168;-54
2023/01/12 09:14:52;;;;;;;2.30;1.40;;;;;;;;;;5066037;28;20287;-54
2023/01/12 09:17:21;;;;;;;3.27;1.43;;;;;;;;;;5083630;28;20231;-54
2023/01/12 09:19:49;;;;;;;1.97;1.40;;;;;;;;;;5079153;28;20176;-53
2023/01/12 09:22:15;;;;;;;1.93;1.30;;;;;;;;;;5087151;28;20210;-56
2023/01/12 09:24:41;;;;;;;4.10;1.70;;;;;;;;;;5080922;28;20191;-54
2023/01/12 09:27:09;;;;;;;1.97;1.30;;;;;;;;;;5080909;28;20698;-54
2023/01/12 09:29:35;;;;;;;1.90;1.30;;;;;;;;;;5074168;28;20643;-53
2023/01/12 09:32:02;;;;;;;3.40;1.33;;;;;;;;;;5067982;28;20164;-53
2023/01/12 09:34:28;;;;;;;2.33;1.30;;;;;;;;;;5084313;27;20697;-53
2023/01/12 09:36:55;;;;;;;2.60;1.40;;;;;;;;;;5081462;28;20266;-54
2023/01/12 09:39:21;;;;;;;2.30;1.30;;;;;;;;;;5087195;28;20183;-53
2023/01/12 09:47:38;;;;;;;3.87;1.30;;;;;;;;;;5075611;28;20239;-53
2023/01/12 09:50:36;;;;;;;5.10;1.50;;;;;;;;;;5084019;28;20163;-54
2023/01/12 09:53:05;;;;;;;2.27;1.37;;;;;;;;;;5014689;28;20650;-54
2023/01/12 09:55:37;;;;;;;2.30;1.50;;;;;;;;;;5087821;28;20235;-53
2023/01/12 09:58:28;;;;;;;1.77;1.53;;;;;;;;;;5057205;28;20724;-53
2023/01/12 10:00:56;;;;;;;1.40;1.30;;;;;;;;;;5068046;28;20165;-54
2023/01/12 10:03:25;;;;;;;1.40;1.30;;;;;;;;;;5070241;28;20634;-54
2023/01/12 10:05:52;;;;;;;3.37;1.57;;;;;;;;;;5069449;28;20267;-55
2023/01/12 10:08:23;;;;;;;1.57;1.33;;;;;;;;;;5087002;28;20249;-54
2023/01/12 10:10:58;;;;;;;2.20;1.20;;;;;;;;;;5085970;28;20183;-54
2023/01/12 10:13:28;;;;;;;1.73;1.30;;;;;;;;;;5084458;28;20634;-54
2023/01/12 10:15:57;;;;;;;1.30;1.20;;;;;;;;;;5085464;28;20180;-54
2023/01/12 10:18:26;;;;;;;5.73;1.83;;;;;;;;;;5085906;28;20625;-54
2023/01/12 10:20:52;;;;;;;1.77;1.30;;;;;;;;;;5086725;28;20188;-54
2023/01/12 10:23:23;;;;;;;2.30;1.60;;;;;;;;;;5084838;28;20603;-54
2023/01/12 10:26:00;;;;;;;3.80;1.40;;;;;;;;;;5084540;28;20543;-53
2023/01/12 10:28:26;;;;;;;2.23;1.37;;;;;;;;;;5067749;28;20202;-55
2023/01/12 10:30:52;;;;;;;2.30;1.40;;;;;;;;;;5068910;28;20616;-53
2023/01/12 10:33:25;;;;;;;2.93;1.50;;;;;;;;;;5080289;28;20225;-53
2023/01/12 10:36:07;;;;;;;2.87;1.37;;;;;;;;;;5065774;28;20623;-54
2023/01/12 10:38:44;;;;;;;2.87;1.80;;;;;;;;;;5071476;28;20535;-55
2023/01/12 10:41:10;;;;;;;2.87;1.30;;;;;;;;;;5072151;28;20204;-54
2023/01/12 10:43:37;;;;;;;2.10;1.30;;;;;;;;;;5072226;28;20180;-55
2023/01/12 10:46:09;;;;;;;2.73;1.70;;;;;;;;;;5066751;28;20191;-54
2023/01/12 10:48:37;;;;;;;1.50;1.37;;;;;;;;;;5073005;28;20200;-54
2023/01/12 10:51:05;;;;;;;2.77;1.47;;;;;;;;;;5065850;28;20564;-54
2023/01/12 10:53:42;;;;;;;1.97;1.40;;;;;;;;;;5065016;28;20172;-54
2023/01/12 10:56:28;;;;;;;2.70;1.43;;;;;;;;;;5067785;28;20546;-53
2023/01/12 10:59:00;;;;;;;1.57;1.37;;;;;;;;;;5069266;28;20191;-55
2023/01/12 11:01:41;;;;;;;2.30;1.63;;;;;;;;;;5065893;28;20180;-54
2023/01/12 11:04:11;;;;;;;2.60;1.60;;;;;;;;;;5065248;28;20176;-54
2023/01/12 11:06:37;;;;;;;3.40;1.50;;;;;;;;;;5052797;28;20176;-54
2023/01/12 11:09:23;;;;;;;4.50;1.43;;;;;;;;;;5065086;28;20527;-53
2023/01/12 11:11:53;;;;;;;4.40;1.30;;;;;;;;;;5066191;28;20631;-54
2023/01/12 11:14:31;;;;;;;1.87;1.50;;;;;;;;;;5062598;28;20164;-55
2023/01/12 11:17:04;;;;;;;1.33;1.17;;;;;;;;;;5064866;28;20196;-55
2023/01/12 11:19:31;;;;;;;1.07;1.07;;;;;;;;;;5060266;28;20179;-54
2023/01/12 11:22:00;;;;;;;3.70;1.70;;;;;;;;;;5064033;28;20164;-54
2023/01/12 11:24:38;;;;;;;3.57;1.50;;;;;;;;;;5057653;28;20673;-53
2023/01/12 11:27:10;;;;;;;3.30;1.57;;;;;;;;;;5066557;28;20199;-54
2023/01/12 11:29:42;;;;;;;1.67;1.10;;;;;;;;;;5075104;28;20529;-54
2023/01/12 11:32:26;;;;;;;1.30;1.20;;;;;;;;;;5071476;28;20413;-54
2023/01/12 11:34:57;;;;;;;1.70;1.30;;;;;;;;;;5074011;28;20739;-54
2023/01/12 11:37:23;;;;;;;2.60;1.60;;;;;;;;;;5071396;28;20180;-54
2023/01/12 11:39:51;;;;;;;2.80;1.30;;;;;;;;;;5075092;28;20176;-54
2023/01/12 11:45:28;;;;;;;1.40;1.30;;;;;;;;;;5077512;28;20186;-53
2023/01/12 11:48:06;;;;;;;2.20;1.57;;;;;;;;;;5078549;28;20223;-54
2023/01/12 11:50:35;;;;;;;2.10;1.37;;;;;;;;;;5079674;28;20183;-55
2023/01/12 11:53:04;;;;;;;1.40;1.23;;;;;;;;;;5080640;28;20251;-54
2023/01/12 11:55:48;;;;;;;3.00;1.40;;;;;;;;;;5082386;28;20180;-54
2023/01/12 11:58:36;;;;;;;1.97;1.47;;;;;;;;;;5076665;28;20183;-54
2023/01/12 12:01:11;;;;;;;3.67;1.60;;;;;;;;;;5077195;28;20652;-54
2023/01/12 12:03:40;;;;;;;3.23;1.57;;;;;;;;;;5073586;28;20180;-53
2023/01/12 12:06:25;;;;;;;1.73;1.50;;;;;;;;;;5071488;28;20460;-54
2023/01/12 12:08:59;;;;;;;1.87;1.37;;;;;;;;;;5068570;28;20256;-55
2023/01/12 12:11:32;;;;;;;2.80;1.83;;;;;;;;;;5082767;28;20176;-54
2023/01/12 12:14:07;;;;;;;3.67;1.97;;;;;;;;;;5076546;28;20176;-55
2023/01/12 12:16:33;;;;;;;2.77;1.57;;;;;;;;;;5068191;28;20710;-53
2023/01/12 12:19:02;;;;;;;1.27;1.17;;;;;;;;;;5081531;28;20383;-53
2023/01/12 12:21:47;;;;;;;2.17;1.43;;;;;;;;;;5082606;28;20245;-54
2023/01/12 12:24:32;;;;;;;2.70;1.57;;;;;;;;;;5064668;28;20176;-54
2023/01/12 12:27:01;;;;;;;2.57;1.67;;;;;;;;;;5075471;28;20255;-54
2023/01/12 12:29:46;;;;;;;3.07;1.60;;;;;;;;;;5080668;28;20649;-54
2023/01/12 12:32:30;;;;;;;1.97;1.23;;;;;;;;;;5075562;28;20228;-54
2023/01/12 12:35:14;;;;;;;1.73;1.40;;;;;;;;;;5084058;27;20756;-54
2023/01/12 12:37:59;;;;;;;2.87;1.40;;;;;;;;;;5080040;28;20236;-53
2023/01/12 12:46:18;;;;;;;1.97;1.50;;;;;;;;;;5086690;28;20343;-55
2023/01/12 12:48:50;;;;;;;4.40;1.30;;;;;;;;;;5084099;28;20242;-55
2023/01/12 12:51:17;;;;;;;4.57;1.70;;;;;;;;;;5085931;28;20172;-56
2023/01/12 12:53:44;;;;;;;3.07;1.40;;;;;;;;;;5084607;28;20179;-54
2023/01/12 12:56:13;;;;;;;1.73;1.63;;;;;;;;;;5084662;28;20168;-54
2023/01/12 12:58:40;;;;;;;4.20;1.50;;;;;;;;;;5083458;28;20179;-54
2023/01/12 13:01:22;;;;;;;2.57;1.60;;;;;;;;;;5076420;28;20668;-54
2023/01/12 13:03:54;;;;;;;1.30;1.20;;;;;;;;;;5082069;28;20267;-54
2023/01/12 13:06:22;;;;;;;3.43;1.50;;;;;;;;;;5080799;28;20259;-55
2023/01/12 13:08:49;;;;;;;1.70;1.20;;;;;;;;;;5077401;28;20196;-55
2023/01/12 13:11:16;;;;;;;1.97;1.30;;;;;;;;;;5083567;28;20256;-53
2023/01/12 13:14:00;;;;;;;1.83;1.30;;;;;;;;;;5079169;28;20226;-54
2023/01/12 13:16:29;;;;;;;1.83;1.30;;;;;;;;;;5080013;28;20279;-53
2023/01/12 13:18:55;;;;;;;1.67;1.57;;;;;;;;;;5081254;28;20184;-54
2023/01/12 13:21:39;;;;;;;2.87;1.90;;;;;;;;;;5081723;28;20268;-54
2023/01/12 13:24:22;;;;;;;1.70;1.60;;;;;;;;;;5078975;28;20364;-55
2023/01/12 13:26:51;;;;;;;1.10;1.00;;;;;;;;;;5085350;28;20182;-54
2023/01/12 13:29:23;;;;;;;1.63;1.40;;;;;;;;;;5074109;28;20176;-55
2023/01/12 13:31:50;;;;;;;2.40;1.50;;;;;;;;;;5076773;28;20604;-54
2023/01/12 13:34:48;;;;;;;2.03;1.30;;;;;;;;;;5072816;28;20220;-54
2023/01/12 13:37:17;;;;;;;1.40;1.20;;;;;;;;;;5040847;28;20792;-55
2023/01/12 13:39:49;;;;;;;1.40;1.13;;;;;;;;;;5075672;28;20594;-54
2023/01/12 13:45:03;;;;;;;1.30;1.20;;;;;;;;;;5068805;28;20369;-53
2023/01/12 13:47:31;;;;;;;1.50;1.23;;;;;;;;;;5080934;28;20579;-52
2023/01/12 13:49:59;;;;;;;1.83;1.20;;;;;;;;;;5081393;28;20183;-55
2023/01/12 13:52:29;;;;;;;1.30;1.20;;;;;;;;;;5078861;28;20179;-53
2023/01/12 13:54:55;;;;;;;2.10;1.50;;;;;;;;;;5085908;28;20641;-53
2023/01/12 13:57:23;;;;;;;2.13;1.40;;;;;;;;;;5082685;28;20231;-54
2023/01/12 14:00:07;;;;;;;1.83;1.50;;;;;;;;;;5080770;28;20713;-52
2023/01/12 14:02:34;;;;;;;1.00;1.00;;;;;;;;;;5075840;28;20172;-52
2023/01/12 14:05:07;;;;;;;1.70;1.40;;;;;;;;;;5083515;28;20647;-53
2023/01/12 14:07:41;;;;;;;1.20;1.10;;;;;;;;;;5079919;28;20900;-51
2023/01/12 14:10:15;;;;;;;1.03;1.03;;;;;;;;;;5079506;28;20524;-53
2023/01/12 14:13:00;;;;;;;1.33;1.23;;;;;;;;;;5077896;28;20184;-54
2023/01/12 14:18:40;;;;;;;1.23;1.20;;;;;;;;;;5080857;28;20213;-54
2023/01/12 14:21:19;;;;;;;2.13;1.23;;;;;;;;;;5076376;28;20183;-53
2023/01/12 14:23:46;;;;;;;2.23;1.20;;;;;;;;;;5082271;28;20206;-55
2023/01/12 14:26:13;;;;;;;1.30;1.20;;;;;;;;;;5083016;28;20269;-54
2023/01/12 14:28:44;;;;;;;1.20;1.10;;;;;;;;;;5078649;28;20195;-53
2023/01/12 14:31:33;;;;;;;1.40;1.30;;;;;;;;;;5080735;28;20184;-53
2023/01/12 14:34:01;;;;;;;1.88;1.20;;;;;;;;;;5057175;28;20796;-51
2023/01/12 14:36:41;;;;;;;2.00;1.43;;;;;;;;;;5081159;28;20199;-52
2023/01/12 14:39:08;;;;;;;2.00;1.20;;;;;;;;;;5080412;28;20174;-53
2023/01/12 14:47:08;;;;;;;2.40;1.60;;;;;;;;;;5078373;28;20685;-53
2023/01/12 14:49:35;;;;;;;1.47;1.37;;;;;;;;;;5081092;28;20172;-53
2023/01/12 14:52:03;;;;;;;1.50;1.40;;;;;;;;;;5082561;28;20546;-54
2023/01/12 14:54:30;;;;;;;1.57;1.47;;;;;;;;;;5081202;28;20548;-53
2023/01/12 14:56:58;;;;;;;2.07;1.40;;;;;;;;;;5083224;28;20596;-55
2023/01/12 14:59:28;;;;;;;2.07;1.37;;;;;;;;;;5084058;28;20206;-53
2023/01/12 15:02:07;;;;;;;1.80;1.43;;;;;;;;;;5079809;28;20273;-53
2023/01/12 15:04:33;;;;;;;1.80;1.70;;;;;;;;;;5081931;28;20175;-53
2023/01/12 15:07:06;;;;;;;3.13;1.23;;;;;;;;;;5084534;28;20464;-52
2023/01/12 15:09:33;;;;;;;2.27;1.43;;;;;;;;;;5079975;28;20172;-52
2023/01/12 15:11:59;;;;;;;1.70;1.60;;;;;;;;;;5082332;28;20167;-54
2023/01/12 15:14:27;;;;;;;1.53;1.43;;;;;;;;;;5074134;28;20646;-54
2023/01/12 15:25:35;;;;;;;1.77;1.67;;;;;;;;;;5072695;28;20196;-52
2023/01/12 15:28:05;;;;;;;1.80;1.70;;;;;;;;;;5071089;28;20192;-53
2023/01/12 15:30:39;;;;;;;3.37;2.00;;;;;;;;;;5084934;28;20689;-54
2023/01/12 15:33:06;;;;;;;2.60;1.60;;;;;;;;;;5075246;28;20212;-52
2023/01/12 15:35:38;;;;;;;2.00;1.90;;;;;;;;;;5069985;28;20242;-52
2023/01/12 15:38:04;;;;;;;2.97;1.80;;;;;;;;;;5071298;28;20175;-54
2023/01/12 15:40:30;;;;;;;2.23;1.67;;;;;;;;;;5066683;28;20184;-54
2023/01/12 15:42:58;;;;;;;2.03;1.90;;;;;;;;;;5072729;28;20660;-53
2023/01/12 15:45:33;;;;;;;2.63;1.67;;;;;;;;;;5066171;28;20440;-54
2023/01/12 15:48:03;;;;;;;2.30;1.60;;;;;;;;;;5083389;28;20261;-52
2023/01/12 15:50:30;;;;;;;2.93;2.30;;;;;;;;;;5072324;28;20742;-55
2023/01/12 15:52:57;;;;;;;2.93;1.63;;;;;;;;;;5085774;28;20211;-54
2023/01/12 15:55:23;;;;;;;1.70;1.60;;;;;;;;;;5078741;28;20699;-53
2023/01/12 15:57:50;;;;;;;2.20;1.60;;;;;;;;;;5080471;28;20168;-53
2023/01/12 16:00:20;;;;;;;2.17;2.07;;;;;;;;;;5079223;28;20648;-52